sensor_id;sensor_type;location;lat;lon;timestamp;temperature;humidity
79065;DHT22;68469;51.502;7.462;2023-08-08T00:00:06;14.40;99.90
79065;DHT22;68469;51.502;7.462;2023-08-08T00:02:34;14.40;99.90
79065;DHT22;68469;51.502;7.462;2023-08-08T00:04:59;14.40;99.90
79065;DHT22;68469;51.502;7.462;2023-08-08T00:07:25;14.40;99.90
79065;DHT22;68469;51.502;7.462;2023-08-08T00:09:51;14.40;99.90
79065;DHT22;68469;51.502;7.462;2023-08-08T00:12:17;14.30;99.90
79065;DHT22;68469;51.502;7.462;2023-08-08T00:14:42;14.30;99.90
79065;DHT22;68469;51.502;7.462;2023-08-08T00:17:08;14.40;99.90
79065;DHT22;68469;51.502;7.462;2023-08-08T00:19:34;14.30;99.90
79065;DHT22;68469;51.502;7.462;2023-08-08T00:21:59;14.30;99.90
79065;DHT22;68469;51.502;7.462;2023-08-08T00:24:25;14.30;99.90
79065;DHT22;68469;51.502;7.462;2023-08-08T00:26:51;14.30;99.90
79065;DHT22;68469;51.502;7.462;2023-08-08T00:29:16;14.40;99.90
79065;DHT22;68469;51.502;7.462;2023-08-08T00:31:42;14.40;99.90
79065;DHT22;68469;51.502;7.462;2023-08-08T00:34:07;14.40;99.90
79065;DHT22;68469;51.502;7.462;2023-08-08T00:36:33;14.30;99.90
79065;DHT22;68469;51.502;7.462;2023-08-08T00:38:59;14.40;99.90
79065;DHT22;68469;51.502;7.462;2023-08-08T00:41:25;14.40;99.90
79065;DHT22;68469;51.502;7.462;2023-08-08T00:43:51;14.40;99.90
79065;DHT22;68469;51.502;7.462;2023-08-08T00:46:19;14.40;99.90
79065;DHT22;68469;51.502;7.462;2023-08-08T00:48:46;14.40;99.90
79065;DHT22;68469;51.502;7.462;2023-08-08T00:51:11;14.50;99.90
79065;DHT22;68469;51.502;7.462;2023-08-08T00:53:38;14.50;99.90
79065;DHT22;68469;51.502;7.462;2023-08-08T00:56:03;14.50;99.90
79065;DHT22;68469;51.502;7.462;2023-08-08T00:58:29;14.50;99.90
79065;DHT22;68469;51.502;7.462;2023-08-08T01:00:55;14.50;99.90
79065;DHT22;68469;51.502;7.462;2023-08-08T01:03:23;14.50;99.90
79065;DHT22;68469;51.502;7.462;2023-08-08T01:05:53;14.50;99.90
79065;DHT22;68469;51.502;7.462;2023-08-08T01:08:26;14.50;99.90
79065;DHT22;68469;51.502;7.462;2023-08-08T01:10:52;14.40;99.90
79065;DHT22;68469;51.502;7.462;2023-08-08T01:13:23;14.40;99.90
79065;DHT22;68469;51.502;7.462;2023-08-08T01:15:50;14.40;99.90
79065;DHT22;68469;51.502;7.462;2023-08-08T01:18:19;14.40;99.90
79065;DHT22;68469;51.502;7.462;2023-08-08T01:20:45;14.40;99.90
79065;DHT22;68469;51.502;7.462;2023-08-08T01:23:33;14.40;99.90
79065;DHT22;68469;51.502;7.462;2023-08-08T01:26:00;14.40;99.90
79065;DHT22;68469;51.502;7.462;2023-08-08T01:28:26;14.40;99.90
79065;DHT22;68469;51.502;7.462;2023-08-08T01:30:52;14.40;99.90
79065;DHT22;68469;51.502;7.462;2023-08-08T01:33:19;14.40;99.90
79065;DHT22;68469;51.502;7.462;2023-08-08T01:35:50;14.40;99.90
79065;DHT22;68469;51.502;7.462;2023-08-08T01:40:59;14.50;99.90
79065;DHT22;68469;51.502;7.462;2023-08-08T01:43:25;14.40;99.90
79065;DHT22;68469;51.502;7.462;2023-08-08T01:45:52;14.50;99.90
79065;DHT22;68469;51.502;7.462;2023-08-08T01:48:18;14.50;99.90
79065;DHT22;68469;51.502;7.462;2023-08-08T01:50:44;14.50;99.90
79065;DHT22;68469;51.502;7.462;2023-08-08T01:53:09;14.40;99.90
79065;DHT22;68469;51.502;7.462;2023-08-08T01:55:35;14.40;99.90
79065;DHT22;68469;51.502;7.462;2023-08-08T01:58:01;14.40;99.90
79065;DHT22;68469;51.502;7.462;2023-08-08T02:00:26;14.40;99.90
79065;DHT22;68469;51.502;7.462;2023-08-08T02:02:52;14.40;99.90
79065;DHT22;68469;51.502;7.462;2023-08-08T02:05:18;14.40;99.90
79065;DHT22;68469;51.502;7.462;2023-08-08T02:07:43;14.40;99.90
79065;DHT22;68469;51.502;7.462;2023-08-08T02:10:09;14.40;99.90
79065;DHT22;68469;51.502;7.462;2023-08-08T02:12:34;14.30;99.90
79065;DHT22;68469;51.502;7.462;2023-08-08T02:15:00;14.30;99.90
79065;DHT22;68469;51.502;7.462;2023-08-08T02:17:26;14.20;99.90
79065;DHT22;68469;51.502;7.462;2023-08-08T02:19:52;14.30;99.90
79065;DHT22;68469;51.502;7.462;2023-08-08T02:22:17;14.20;99.90
79065;DHT22;68469;51.502;7.462;2023-08-08T02:24:43;14.20;99.90
79065;DHT22;68469;51.502;7.462;2023-08-08T02:27:09;14.10;99.90
79065;DHT22;68469;51.502;7.462;2023-08-08T02:29:34;14.10;99.90
79065;DHT22;68469;51.502;7.462;2023-08-08T02:32:00;14.10;99.90
79065;DHT22;68469;51.502;7.462;2023-08-08T02:34:26;14.10;99.90
79065;DHT22;68469;51.502;7.462;2023-08-08T02:36:51;14.10;99.90
79065;DHT22;68469;51.502;7.462;2023-08-08T02:39:17;14.10;99.90
79065;DHT22;68469;51.502;7.462;2023-08-08T02:41:43;14.10;99.90
79065;DHT22;68469;51.502;7.462;2023-08-08T02:44:08;14.10;99.90
79065;DHT22;68469;51.502;7.462;2023-08-08T02:46:34;14.20;99.90
79065;DHT22;68469;51.502;7.462;2023-08-08T02:49:00;14.20;99.90
79065;DHT22;68469;51.502;7.462;2023-08-08T02:51:25;14.20;99.90
79065;DHT22;68469;51.502;7.462;2023-08-08T02:53:51;14.30;99.90
79065;DHT22;68469;51.502;7.462;2023-08-08T02:56:16;14.30;99.90
79065;DHT22;68469;51.502;7.462;2023-08-08T02:58:42;14.30;99.90
79065;DHT22;68469;51.502;7.462;2023-08-08T03:01:08;14.30;99.90
79065;DHT22;68469;51.502;7.462;2023-08-08T03:03:33;14.30;99.90
79065;DHT22;68469;51.502;7.462;2023-08-08T03:06:00;14.30;99.90
79065;DHT22;68469;51.502;7.462;2023-08-08T03:08:27;14.30;99.90
79065;DHT22;68469;51.502;7.462;2023-08-08T03:10:53;14.30;99.90
79065;DHT22;68469;51.502;7.462;2023-08-08T03:13:18;14.30;99.90
79065;DHT22;68469;51.502;7.462;2023-08-08T03:15:45;14.30;99.90
79065;DHT22;68469;51.502;7.462;2023-08-08T03:18:10;14.30;99.90
79065;DHT22;68469;51.502;7.462;2023-08-08T03:20:36;14.30;99.90
79065;DHT22;68469;51.502;7.462;2023-08-08T03:23:02;14.30;99.90
79065;DHT22;68469;51.502;7.462;2023-08-08T03:25:27;14.30;99.90
79065;DHT22;68469;51.502;7.462;2023-08-08T03:27:53;14.30;99.90
79065;DHT22;68469;51.502;7.462;2023-08-08T03:30:19;14.30;99.90
79065;DHT22;68469;51.502;7.462;2023-08-08T03:32:44;14.30;99.90
79065;DHT22;68469;51.502;7.462;2023-08-08T03:35:10;14.30;99.90
79065;DHT22;68469;51.502;7.462;2023-08-08T03:37:35;14.30;99.90
79065;DHT22;68469;51.502;7.462;2023-08-08T03:40:01;14.30;99.90
79065;DHT22;68469;51.502;7.462;2023-08-08T03:42:27;14.30;99.90
79065;DHT22;68469;51.502;7.462;2023-08-08T03:44:52;14.30;99.90
79065;DHT22;68469;51.502;7.462;2023-08-08T03:47:18;14.30;99.90
79065;DHT22;68469;51.502;7.462;2023-08-08T03:49:43;14.30;99.90
79065;DHT22;68469;51.502;7.462;2023-08-08T03:52:09;14.30;99.90
79065;DHT22;68469;51.502;7.462;2023-08-08T03:54:35;14.30;99.90
79065;DHT22;68469;51.502;7.462;2023-08-08T03:57:00;14.30;99.90
79065;DHT22;68469;51.502;7.462;2023-08-08T03:59:26;14.30;99.90
79065;DHT22;68469;51.502;7.462;2023-08-08T04:01:52;14.30;99.90
79065;DHT22;68469;51.502;7.462;2023-08-08T04:04:18;14.30;99.90
79065;DHT22;68469;51.502;7.462;2023-08-08T04:06:43;14.30;99.90
79065;DHT22;68469;51.502;7.462;2023-08-08T04:09:09;14.30;99.90
79065;DHT22;68469;51.502;7.462;2023-08-08T04:11:35;14.30;99.90
79065;DHT22;68469;51.502;7.462;2023-08-08T04:14:01;14.20;99.90
79065;DHT22;68469;51.502;7.462;2023-08-08T04:16:27;14.20;99.90
79065;DHT22;68469;51.502;7.462;2023-08-08T04:18:53;14.20;99.90
79065;DHT22;68469;51.502;7.462;2023-08-08T04:21:18;14.10;99.90
79065;DHT22;68469;51.502;7.462;2023-08-08T04:23:44;14.10;99.90
79065;DHT22;68469;51.502;7.462;2023-08-08T04:26:10;14.10;99.90
79065;DHT22;68469;51.502;7.462;2023-08-08T04:28:35;14.00;99.90
79065;DHT22;68469;51.502;7.462;2023-08-08T04:31:01;14.10;99.90
79065;DHT22;68469;51.502;7.462;2023-08-08T04:33:26;14.00;99.90
79065;DHT22;68469;51.502;7.462;2023-08-08T04:35:52;14.00;99.90
79065;DHT22;68469;51.502;7.462;2023-08-08T04:38:18;14.00;99.90
79065;DHT22;68469;51.502;7.462;2023-08-08T04:40:43;14.00;99.90
79065;DHT22;68469;51.502;7.462;2023-08-08T04:43:09;14.00;99.90
79065;DHT22;68469;51.502;7.462;2023-08-08T04:45:34;14.10;99.90
79065;DHT22;68469;51.502;7.462;2023-08-08T04:48:00;14.10;99.90
79065;DHT22;68469;51.502;7.462;2023-08-08T04:50:25;14.10;99.90
79065;DHT22;68469;51.502;7.462;2023-08-08T04:52:51;14.10;99.90
79065;DHT22;68469;51.502;7.462;2023-08-08T04:55:17;14.10;99.90
79065;DHT22;68469;51.502;7.462;2023-08-08T04:57:42;14.10;99.90
79065;DHT22;68469;51.502;7.462;2023-08-08T05:00:08;14.20;99.90
79065;DHT22;68469;51.502;7.462;2023-08-08T05:02:35;14.20;99.90
79065;DHT22;68469;51.502;7.462;2023-08-08T05:05:00;14.20;99.90
79065;DHT22;68469;51.502;7.462;2023-08-08T05:07:29;14.20;99.90
79065;DHT22;68469;51.502;7.462;2023-08-08T05:09:55;14.20;99.90
79065;DHT22;68469;51.502;7.462;2023-08-08T05:12:20;14.20;99.90
79065;DHT22;68469;51.502;7.462;2023-08-08T05:14:46;14.20;99.90
79065;DHT22;68469;51.502;7.462;2023-08-08T05:17:11;14.30;99.90
79065;DHT22;68469;51.502;7.462;2023-08-08T05:19:37;14.30;99.90
79065;DHT22;68469;51.502;7.462;2023-08-08T05:22:03;14.30;99.90
79065;DHT22;68469;51.502;7.462;2023-08-08T05:24:28;14.30;99.90
79065;DHT22;68469;51.502;7.462;2023-08-08T05:26:54;14.40;99.90
79065;DHT22;68469;51.502;7.462;2023-08-08T05:29:19;14.40;99.90
79065;DHT22;68469;51.502;7.462;2023-08-08T05:31:46;14.50;99.90
79065;DHT22;68469;51.502;7.462;2023-08-08T05:34:12;14.50;99.90
79065;DHT22;68469;51.502;7.462;2023-08-08T05:36:37;14.50;99.90
79065;DHT22;68469;51.502;7.462;2023-08-08T05:39:03;14.50;99.90
79065;DHT22;68469;51.502;7.462;2023-08-08T05:41:29;14.50;99.90
79065;DHT22;68469;51.502;7.462;2023-08-08T05:43:54;14.60;99.90
79065;DHT22;68469;51.502;7.462;2023-08-08T05:46:20;14.60;99.90
79065;DHT22;68469;51.502;7.462;2023-08-08T05:48:45;14.60;99.90
79065;DHT22;68469;51.502;7.462;2023-08-08T05:51:12;14.60;99.90
79065;DHT22;68469;51.502;7.462;2023-08-08T05:53:37;14.60;99.90
79065;DHT22;68469;51.502;7.462;2023-08-08T05:56:04;14.60;99.90
79065;DHT22;68469;51.502;7.462;2023-08-08T05:58:30;14.60;99.90
79065;DHT22;68469;51.502;7.462;2023-08-08T06:00:55;14.60;99.90
79065;DHT22;68469;51.502;7.462;2023-08-08T06:03:21;14.70;99.90
79065;DHT22;68469;51.502;7.462;2023-08-08T06:05:47;14.70;99.90
79065;DHT22;68469;51.502;7.462;2023-08-08T06:08:12;14.80;99.90
79065;DHT22;68469;51.502;7.462;2023-08-08T06:10:39;14.90;99.90
79065;DHT22;68469;51.502;7.462;2023-08-08T06:13:04;15.00;99.90
79065;DHT22;68469;51.502;7.462;2023-08-08T06:15:30;15.10;99.90
79065;DHT22;68469;51.502;7.462;2023-08-08T06:17:56;15.10;99.90
79065;DHT22;68469;51.502;7.462;2023-08-08T06:20:22;15.10;99.90
79065;DHT22;68469;51.502;7.462;2023-08-08T06:22:48;15.10;99.90
79065;DHT22;68469;51.502;7.462;2023-08-08T06:25:14;15.10;99.90
79065;DHT22;68469;51.502;7.462;2023-08-08T06:27:40;15.10;99.90
79065;DHT22;68469;51.502;7.462;2023-08-08T06:30:06;15.20;99.90
79065;DHT22;68469;51.502;7.462;2023-08-08T06:32:32;15.20;99.90
79065;DHT22;68469;51.502;7.462;2023-08-08T06:34:58;15.20;99.90
79065;DHT22;68469;51.502;7.462;2023-08-08T06:37:23;15.20;99.90
79065;DHT22;68469;51.502;7.462;2023-08-08T06:39:49;15.30;99.90
79065;DHT22;68469;51.502;7.462;2023-08-08T06:42:14;15.30;99.90
79065;DHT22;68469;51.502;7.462;2023-08-08T06:44:43;15.30;99.90
79065;DHT22;68469;51.502;7.462;2023-08-08T06:47:10;15.40;99.90
79065;DHT22;68469;51.502;7.462;2023-08-08T06:49:36;15.50;99.90
79065;DHT22;68469;51.502;7.462;2023-08-08T06:52:02;15.60;99.90
79065;DHT22;68469;51.502;7.462;2023-08-08T06:54:28;15.60;99.90
79065;DHT22;68469;51.502;7.462;2023-08-08T06:56:54;15.70;99.90
79065;DHT22;68469;51.502;7.462;2023-08-08T06:59:22;15.80;99.90
79065;DHT22;68469;51.502;7.462;2023-08-08T07:01:49;16.00;99.90
79065;DHT22;68469;51.502;7.462;2023-08-08T07:04:14;16.00;99.90
79065;DHT22;68469;51.502;7.462;2023-08-08T07:06:42;16.10;99.90
79065;DHT22;68469;51.502;7.462;2023-08-08T07:09:08;16.20;99.90
79065;DHT22;68469;51.502;7.462;2023-08-08T07:11:36;16.20;99.90
79065;DHT22;68469;51.502;7.462;2023-08-08T07:14:02;16.20;99.90
79065;DHT22;68469;51.502;7.462;2023-08-08T07:16:28;16.20;99.90
79065;DHT22;68469;51.502;7.462;2023-08-08T07:18:53;16.30;99.90
79065;DHT22;68469;51.502;7.462;2023-08-08T07:21:19;16.40;99.90
79065;DHT22;68469;51.502;7.462;2023-08-08T07:23:45;16.60;99.90
79065;DHT22;68469;51.502;7.462;2023-08-08T07:26:11;16.90;99.90
79065;DHT22;68469;51.502;7.462;2023-08-08T07:28:37;16.90;99.90
79065;DHT22;68469;51.502;7.462;2023-08-08T07:31:03;17.10;99.90
79065;DHT22;68469;51.502;7.462;2023-08-08T07:33:28;17.40;99.90
79065;DHT22;68469;51.502;7.462;2023-08-08T07:35:54;17.40;99.70
79065;DHT22;68469;51.502;7.462;2023-08-08T07:38:20;17.50;99.70
79065;DHT22;68469;51.502;7.462;2023-08-08T07:40:45;17.50;99.90
79065;DHT22;68469;51.502;7.462;2023-08-08T07:43:11;17.60;98.40
79065;DHT22;68469;51.502;7.462;2023-08-08T07:45:37;17.70;98.10
79065;DHT22;68469;51.502;7.462;2023-08-08T07:48:03;17.70;97.90
79065;DHT22;68469;51.502;7.462;2023-08-08T07:50:29;17.80;97.10
79065;DHT22;68469;51.502;7.462;2023-08-08T07:52:55;17.90;96.70
79065;DHT22;68469;51.502;7.462;2023-08-08T07:55:20;17.90;95.60
79065;DHT22;68469;51.502;7.462;2023-08-08T07:57:46;18.00;95.30
79065;DHT22;68469;51.502;7.462;2023-08-08T08:00:12;18.10;93.90
79065;DHT22;68469;51.502;7.462;2023-08-08T08:02:42;18.30;92.70
79065;DHT22;68469;51.502;7.462;2023-08-08T08:05:09;18.50;93.40
79065;DHT22;68469;51.502;7.462;2023-08-08T08:07:35;18.80;92.60
79065;DHT22;68469;51.502;7.462;2023-08-08T08:10:02;19.10;90.90
79065;DHT22;68469;51.502;7.462;2023-08-08T08:12:29;19.50;88.70
79065;DHT22;68469;51.502;7.462;2023-08-08T08:14:55;19.70;85.70
79065;DHT22;68469;51.502;7.462;2023-08-08T08:17:21;20.00;82.30
79065;DHT22;68469;51.502;7.462;2023-08-08T08:19:46;20.30;84.30
79065;DHT22;68469;51.502;7.462;2023-08-08T08:22:12;20.50;81.60
79065;DHT22;68469;51.502;7.462;2023-08-08T08:24:37;20.70;81.40
79065;DHT22;68469;51.502;7.462;2023-08-08T08:27:03;20.90;79.10
79065;DHT22;68469;51.502;7.462;2023-08-08T08:29:29;20.90;77.00
79065;DHT22;68469;51.502;7.462;2023-08-08T08:31:56;21.10;76.70
79065;DHT22;68469;51.502;7.462;2023-08-08T08:34:21;21.20;75.90
79065;DHT22;68469;51.502;7.462;2023-08-08T08:36:47;21.40;75.60
79065;DHT22;68469;51.502;7.462;2023-08-08T08:39:13;21.40;73.60
79065;DHT22;68469;51.502;7.462;2023-08-08T08:41:39;21.60;74.20
79065;DHT22;68469;51.502;7.462;2023-08-08T08:44:05;21.70;70.20
79065;DHT22;68469;51.502;7.462;2023-08-08T08:46:35;21.80;70.70
79065;DHT22;68469;51.502;7.462;2023-08-08T08:49:03;22.00;72.10
79065;DHT22;68469;51.502;7.462;2023-08-08T08:51:30;22.20;71.30
79065;DHT22;68469;51.502;7.462;2023-08-08T08:53:58;22.40;69.30
79065;DHT22;68469;51.502;7.462;2023-08-08T08:56:24;22.50;68.00
79065;DHT22;68469;51.502;7.462;2023-08-08T08:58:50;22.50;69.70
79065;DHT22;68469;51.502;7.462;2023-08-08T09:01:16;22.50;68.70
79065;DHT22;68469;51.502;7.462;2023-08-08T09:03:44;22.50;68.70
79065;DHT22;68469;51.502;7.462;2023-08-08T09:06:11;22.60;67.60
79065;DHT22;68469;51.502;7.462;2023-08-08T09:08:37;22.70;67.10
79065;DHT22;68469;51.502;7.462;2023-08-08T09:11:02;22.80;66.70
79065;DHT22;68469;51.502;7.462;2023-08-08T09:13:37;22.70;65.30
79065;DHT22;68469;51.502;7.462;2023-08-08T09:16:05;22.60;65.60
79065;DHT22;68469;51.502;7.462;2023-08-08T09:18:32;22.70;66.30
79065;DHT22;68469;51.502;7.462;2023-08-08T09:20:58;22.60;66.40
79065;DHT22;68469;51.502;7.462;2023-08-08T09:23:24;22.40;65.80
79065;DHT22;68469;51.502;7.462;2023-08-08T09:25:49;22.10;65.80
79065;DHT22;68469;51.502;7.462;2023-08-08T09:28:15;21.80;66.00
79065;DHT22;68469;51.502;7.462;2023-08-08T09:30:42;21.50;67.20
79065;DHT22;68469;51.502;7.462;2023-08-08T09:33:08;21.30;70.30
79065;DHT22;68469;51.502;7.462;2023-08-08T09:35:34;21.20;70.50
79065;DHT22;68469;51.502;7.462;2023-08-08T09:38:03;21.20;70.80
79065;DHT22;68469;51.502;7.462;2023-08-08T09:40:29;21.20;71.50
79065;DHT22;68469;51.502;7.462;2023-08-08T09:42:56;21.20;69.50
79065;DHT22;68469;51.502;7.462;2023-08-08T09:45:22;21.20;68.70
79065;DHT22;68469;51.502;7.462;2023-08-08T09:47:50;21.20;68.20
79065;DHT22;68469;51.502;7.462;2023-08-08T09:50:18;21.00;67.50
79065;DHT22;68469;51.502;7.462;2023-08-08T09:52:44;20.90;67.70
79065;DHT22;68469;51.502;7.462;2023-08-08T09:55:11;20.70;70.00
79065;DHT22;68469;51.502;7.462;2023-08-08T09:57:39;20.40;72.50
79065;DHT22;68469;51.502;7.462;2023-08-08T10:00:06;20.30;71.20
79065;DHT22;68469;51.502;7.462;2023-08-08T10:02:35;20.20;70.70
79065;DHT22;68469;51.502;7.462;2023-08-08T10:05:03;20.30;71.80
79065;DHT22;68469;51.502;7.462;2023-08-08T10:07:29;20.40;73.80
79065;DHT22;68469;51.502;7.462;2023-08-08T10:09:56;20.80;72.90
79065;DHT22;68469;51.502;7.462;2023-08-08T10:12:23;21.40;70.60
79065;DHT22;68469;51.502;7.462;2023-08-08T10:14:51;22.00;66.50
79065;DHT22;68469;51.502;7.462;2023-08-08T10:17:17;22.30;66.30
79065;DHT22;68469;51.502;7.462;2023-08-08T10:19:56;22.50;63.90
79065;DHT22;68469;51.502;7.462;2023-08-08T10:22:24;22.50;62.80
79065;DHT22;68469;51.502;7.462;2023-08-08T10:24:53;22.70;62.50
79065;DHT22;68469;51.502;7.462;2023-08-08T10:27:32;22.70;62.60
79065;DHT22;68469;51.502;7.462;2023-08-08T10:30:09;22.60;63.30
79065;DHT22;68469;51.502;7.462;2023-08-08T10:32:43;22.20;63.50
79065;DHT22;68469;51.502;7.462;2023-08-08T10:35:10;21.80;64.50
79065;DHT22;68469;51.502;7.462;2023-08-08T10:37:36;21.40;65.70
79065;DHT22;68469;51.502;7.462;2023-08-08T10:40:06;21.00;67.40
79065;DHT22;68469;51.502;7.462;2023-08-08T10:42:36;20.60;67.50
79065;DHT22;68469;51.502;7.462;2023-08-08T10:45:08;20.40;68.10
79065;DHT22;68469;51.502;7.462;2023-08-08T10:47:35;20.10;69.60
79065;DHT22;68469;51.502;7.462;2023-08-08T10:50:12;19.90;68.60
79065;DHT22;68469;51.502;7.462;2023-08-08T10:55:26;19.60;71.40
79065;DHT22;68469;51.502;7.462;2023-08-08T10:58:06;19.50;71.40
79065;DHT22;68469;51.502;7.462;2023-08-08T11:00:34;19.50;73.00
79065;DHT22;68469;51.502;7.462;2023-08-08T11:03:01;19.40;73.80
79065;DHT22;68469;51.502;7.462;2023-08-08T11:05:31;19.20;72.30
79065;DHT22;68469;51.502;7.462;2023-08-08T11:07:57;19.00;71.60
79065;DHT22;68469;51.502;7.462;2023-08-08T11:10:23;18.80;75.20
79065;DHT22;68469;51.502;7.462;2023-08-08T11:13:00;18.70;74.90
79065;DHT22;68469;51.502;7.462;2023-08-08T11:15:26;18.60;74.10
79065;DHT22;68469;51.502;7.462;2023-08-08T11:17:54;18.50;76.70
79065;DHT22;68469;51.502;7.462;2023-08-08T11:20:21;18.40;79.70
79065;DHT22;68469;51.502;7.462;2023-08-08T11:22:53;18.30;82.50
79065;DHT22;68469;51.502;7.462;2023-08-08T11:25:21;18.20;86.00
79065;DHT22;68469;51.502;7.462;2023-08-08T11:27:51;18.10;86.60
79065;DHT22;68469;51.502;7.462;2023-08-08T11:30:17;17.90;90.50
79065;DHT22;68469;51.502;7.462;2023-08-08T11:32:43;17.90;90.90
79065;DHT22;68469;51.502;7.462;2023-08-08T11:35:10;17.70;91.00
79065;DHT22;68469;51.502;7.462;2023-08-08T11:37:36;17.70;94.20
79065;DHT22;68469;51.502;7.462;2023-08-08T11:40:03;17.60;95.50
79065;DHT22;68469;51.502;7.462;2023-08-08T11:42:31;17.60;96.80
79065;DHT22;68469;51.502;7.462;2023-08-08T11:44:57;18.20;94.90
79065;DHT22;68469;51.502;7.462;2023-08-08T11:47:26;20.40;90.00
79065;DHT22;68469;51.502;7.462;2023-08-08T11:49:51;21.50;83.50
79065;DHT22;68469;51.502;7.462;2023-08-08T11:52:20;21.80;77.40
79065;DHT22;68469;51.502;7.462;2023-08-08T11:54:51;21.80;69.70
79065;DHT22;68469;51.502;7.462;2023-08-08T11:57:17;21.50;71.90
79065;DHT22;68469;51.502;7.462;2023-08-08T11:59:43;21.30;71.10
79065;DHT22;68469;51.502;7.462;2023-08-08T12:02:09;21.00;70.50
79065;DHT22;68469;51.502;7.462;2023-08-08T12:04:35;20.80;69.30
79065;DHT22;68469;51.502;7.462;2023-08-08T12:07:02;20.50;71.00
79065;DHT22;68469;51.502;7.462;2023-08-08T12:09:31;21.90;73.20
79065;DHT22;68469;51.502;7.462;2023-08-08T12:12:00;23.60;67.00
79065;DHT22;68469;51.502;7.462;2023-08-08T12:14:26;26.20;62.30
79065;DHT22;68469;51.502;7.462;2023-08-08T12:16:52;28.40;53.30
79065;DHT22;68469;51.502;7.462;2023-08-08T12:19:23;29.50;51.70
79065;DHT22;68469;51.502;7.462;2023-08-08T12:21:49;30.40;48.90
79065;DHT22;68469;51.502;7.462;2023-08-08T12:24:14;31.60;41.80
79065;DHT22;68469;51.502;7.462;2023-08-08T12:26:40;32.50;44.30
79065;DHT22;68469;51.502;7.462;2023-08-08T12:29:05;32.00;44.40
79065;DHT22;68469;51.502;7.462;2023-08-08T12:31:31;31.00;43.40
79065;DHT22;68469;51.502;7.462;2023-08-08T12:33:56;30.50;43.90
79065;DHT22;68469;51.502;7.462;2023-08-08T12:36:22;30.20;45.40
79065;DHT22;68469;51.502;7.462;2023-08-08T12:38:48;29.60;45.00
79065;DHT22;68469;51.502;7.462;2023-08-08T12:41:26;28.80;46.10
79065;DHT22;68469;51.502;7.462;2023-08-08T12:43:58;27.90;50.10
79065;DHT22;68469;51.502;7.462;2023-08-08T12:46:24;27.10;50.70
79065;DHT22;68469;51.502;7.462;2023-08-08T12:48:49;26.40;51.10
79065;DHT22;68469;51.502;7.462;2023-08-08T12:51:15;25.60;52.40
79065;DHT22;68469;51.502;7.462;2023-08-08T12:53:42;25.00;52.50
79065;DHT22;68469;51.502;7.462;2023-08-08T12:56:07;24.50;56.10
79065;DHT22;68469;51.502;7.462;2023-08-08T12:58:33;24.00;56.40
79065;DHT22;68469;51.502;7.462;2023-08-08T13:00:59;23.60;58.30
79065;DHT22;68469;51.502;7.462;2023-08-08T13:03:24;23.40;59.00
79065;DHT22;68469;51.502;7.462;2023-08-08T13:05:50;23.10;59.10
79065;DHT22;68469;51.502;7.462;2023-08-08T13:08:15;22.60;60.50
79065;DHT22;68469;51.502;7.462;2023-08-08T13:10:41;22.40;60.70
79065;DHT22;68469;51.502;7.462;2023-08-08T13:13:07;22.20;62.90
79065;DHT22;68469;51.502;7.462;2023-08-08T13:15:33;22.00;63.00
79065;DHT22;68469;51.502;7.462;2023-08-08T13:17:59;21.90;64.50
79065;DHT22;68469;51.502;7.462;2023-08-08T13:20:25;21.80;64.90
79065;DHT22;68469;51.502;7.462;2023-08-08T13:22:51;21.70;63.30
79065;DHT22;68469;51.502;7.462;2023-08-08T13:25:17;21.60;66.90
79065;DHT22;68469;51.502;7.462;2023-08-08T13:27:44;21.60;68.10
79065;DHT22;68469;51.502;7.462;2023-08-08T13:30:10;21.50;68.70
79065;DHT22;68469;51.502;7.462;2023-08-08T13:32:36;21.50;67.80
79065;DHT22;68469;51.502;7.462;2023-08-08T13:35:02;21.30;66.90
79065;DHT22;68469;51.502;7.462;2023-08-08T13:37:28;21.20;67.50
79065;DHT22;68469;51.502;7.462;2023-08-08T13:39:53;21.10;69.10
79065;DHT22;68469;51.502;7.462;2023-08-08T13:42:19;21.00;68.90
79065;DHT22;68469;51.502;7.462;2023-08-08T13:44:44;20.90;71.10
79065;DHT22;68469;51.502;7.462;2023-08-08T13:47:10;20.80;71.20
79065;DHT22;68469;51.502;7.462;2023-08-08T13:49:36;20.60;72.90
79065;DHT22;68469;51.502;7.462;2023-08-08T13:52:01;20.40;73.80
79065;DHT22;68469;51.502;7.462;2023-08-08T13:54:27;20.20;73.70
79065;DHT22;68469;51.502;7.462;2023-08-08T13:56:53;20.10;74.30
79065;DHT22;68469;51.502;7.462;2023-08-08T13:59:18;20.10;72.80
79065;DHT22;68469;51.502;7.462;2023-08-08T14:01:44;20.10;72.60
79065;DHT22;68469;51.502;7.462;2023-08-08T14:04:10;20.20;75.00
79065;DHT22;68469;51.502;7.462;2023-08-08T14:06:35;20.30;72.90
79065;DHT22;68469;51.502;7.462;2023-08-08T14:09:01;20.40;69.40
79065;DHT22;68469;51.502;7.462;2023-08-08T14:11:26;20.50;71.80
79065;DHT22;68469;51.502;7.462;2023-08-08T14:13:52;20.60;70.80
79065;DHT22;68469;51.502;7.462;2023-08-08T14:16:18;20.70;68.50
79065;DHT22;68469;51.502;7.462;2023-08-08T14:18:43;20.70;68.90
79065;DHT22;68469;51.502;7.462;2023-08-08T14:21:09;20.80;70.30
79065;DHT22;68469;51.502;7.462;2023-08-08T14:23:35;20.90;69.50
79065;DHT22;68469;51.502;7.462;2023-08-08T14:26:00;20.80;67.50
79065;DHT22;68469;51.502;7.462;2023-08-08T14:28:26;20.60;69.40
79065;DHT22;68469;51.502;7.462;2023-08-08T14:30:52;20.50;69.80
79065;DHT22;68469;51.502;7.462;2023-08-08T14:33:17;20.30;71.50
79065;DHT22;68469;51.502;7.462;2023-08-08T14:35:43;20.30;72.20
79065;DHT22;68469;51.502;7.462;2023-08-08T14:38:09;20.30;71.50
79065;DHT22;68469;51.502;7.462;2023-08-08T14:40:34;20.30;73.00
79065;DHT22;68469;51.502;7.462;2023-08-08T14:43:01;20.30;73.60
79065;DHT22;68469;51.502;7.462;2023-08-08T14:45:27;20.20;72.90
79065;DHT22;68469;51.502;7.462;2023-08-08T14:47:52;20.10;72.00
79065;DHT22;68469;51.502;7.462;2023-08-08T14:50:18;20.00;74.70
79065;DHT22;68469;51.502;7.462;2023-08-08T14:52:44;19.90;73.50
79065;DHT22;68469;51.502;7.462;2023-08-08T14:55:10;19.90;71.60
79065;DHT22;68469;51.502;7.462;2023-08-08T14:57:35;20.00;72.50
79065;DHT22;68469;51.502;7.462;2023-08-08T15:00:01;20.10;71.60
79065;DHT22;68469;51.502;7.462;2023-08-08T15:02:27;20.10;70.40
79065;DHT22;68469;51.502;7.462;2023-08-08T15:04:52;20.10;69.10
79065;DHT22;68469;51.502;7.462;2023-08-08T15:07:19;20.10;69.70
79065;DHT22;68469;51.502;7.462;2023-08-08T15:09:44;20.00;70.30
79065;DHT22;68469;51.502;7.462;2023-08-08T15:12:14;20.00;70.30
79065;DHT22;68469;51.502;7.462;2023-08-08T15:14:39;20.00;70.60
79065;DHT22;68469;51.502;7.462;2023-08-08T15:17:05;20.00;69.50
79065;DHT22;68469;51.502;7.462;2023-08-08T15:19:30;20.00;69.50
79065;DHT22;68469;51.502;7.462;2023-08-08T15:21:56;20.00;69.20
79065;DHT22;68469;51.502;7.462;2023-08-08T15:24:22;20.10;70.70
79065;DHT22;68469;51.502;7.462;2023-08-08T15:26:47;20.10;66.20
79065;DHT22;68469;51.502;7.462;2023-08-08T15:29:13;20.10;67.50